sensor_id;sensor_type;location;lat;lon;timestamp;P1;durP1;ratioP1;P2;durP2;ratioP2
49514;SDS011;35415;47.870;16.058;2022-11-18T00:01:05;11.50;;;8.35;;
49514;SDS011;35415;47.870;16.058;2022-11-18T00:03:33;13.93;;;8.20;;
49514;SDS011;35415;47.870;16.058;2022-11-18T00:06:01;14.25;;;8.82;;
49514;SDS011;35415;47.870;16.058;2022-11-18T00:08:29;16.27;;;9.20;;
49514;SDS011;35415;47.870;16.058;2022-11-18T00:11:03;15.65;;;9.85;;
49514;SDS011;35415;47.870;16.058;2022-11-18T00:13:30;16.17;;;9.07;;
49514;SDS011;35415;47.870;16.058;2022-11-18T00:16:14;15.20;;;9.25;;
49514;SDS011;35415;47.870;16.058;2022-11-18T00:18:41;15.20;;;8.90;;
49514;SDS011;35415;47.870;16.058;2022-11-18T00:21:09;12.18;;;7.53;;
49514;SDS011;35415;47.870;16.058;2022-11-18T00:23:38;12.43;;;6.97;;
49514;SDS011;35415;47.870;16.058;2022-11-18T00:26:07;11.57;;;6.60;;
49514;SDS011;35415;47.870;16.058;2022-11-18T00:28:36;12.20;;;6.60;;
49514;SDS011;35415;47.870;16.058;2022-11-18T00:31:05;9.57;;;6.25;;
49514;SDS011;35415;47.870;16.058;2022-11-18T00:33:33;10.23;;;6.15;;
49514;SDS011;35415;47.870;16.058;2022-11-18T00:36:01;8.75;;;5.88;;
49514;SDS011;35415;47.870;16.058;2022-11-18T00:38:28;10.90;;;5.88;;
49514;SDS011;35415;47.870;16.058;2022-11-18T00:41:00;9.85;;;6.38;;
49514;SDS011;35415;47.870;16.058;2022-11-18T00:43:29;10.60;;;6.53;;
49514;SDS011;35415;47.870;16.058;2022-11-18T00:45:56;10.15;;;6.20;;
49514;SDS011;35415;47.870;16.058;2022-11-18T00:48:23;11.82;;;6.80;;
49514;SDS011;35415;47.870;16.058;2022-11-18T00:50:53;14.80;;;7.50;;
49514;SDS011;35415;47.870;16.058;2022-11-18T00:53:22;8.82;;;6.15;;
49514;SDS011;35415;47.870;16.058;2022-11-18T00:55:51;12.48;;;7.15;;
49514;SDS011;35415;47.870;16.058;2022-11-18T00:58:19;11.27;;;7.18;;
49514;SDS011;35415;47.870;16.058;2022-11-18T01:00:49;11.40;;;6.10;;
49514;SDS011;35415;47.870;16.058;2022-11-18T01:03:17;9.73;;;6.20;;
49514;SDS011;35415;47.870;16.058;2022-11-18T01:05:45;10.23;;;5.90;;
49514;SDS011;35415;47.870;16.058;2022-11-18T01:08:12;10.68;;;6.10;;
49514;SDS011;35415;47.870;16.058;2022-11-18T01:10:39;8.20;;;5.75;;
49514;SDS011;35415;47.870;16.058;2022-11-18T01:13:11;8.73;;;5.60;;
49514;SDS011;35415;47.870;16.058;2022-11-18T01:15:47;9.00;;;5.50;;
49514;SDS011;35415;47.870;16.058;2022-11-18T01:18:16;9.45;;;5.43;;
49514;SDS011;35415;47.870;16.058;2022-11-18T01:20:45;8.23;;;5.45;;
49514;SDS011;35415;47.870;16.058;2022-11-18T01:23:13;9.75;;;5.20;;
49514;SDS011;35415;47.870;16.058;2022-11-18T01:25:41;8.32;;;5.28;;
49514;SDS011;35415;47.870;16.058;2022-11-18T01:28:10;11.45;;;5.43;;
49514;SDS011;35415;47.870;16.058;2022-11-18T01:30:38;9.70;;;5.72;;
49514;SDS011;35415;47.870;16.058;2022-11-18T01:33:08;9.40;;;6.03;;
49514;SDS011;35415;47.870;16.058;2022-11-18T01:35:35;7.68;;;5.28;;
49514;SDS011;35415;47.870;16.058;2022-11-18T01:38:04;8.70;;;5.40;;
49514;SDS011;35415;47.870;16.058;2022-11-18T01:40:32;10.80;;;5.22;;
49514;SDS011;35415;47.870;16.058;2022-11-18T01:42:59;7.25;;;4.72;;
49514;SDS011;35415;47.870;16.058;2022-11-18T01:45:28;9.32;;;6.55;;
49514;SDS011;35415;47.870;16.058;2022-11-18T01:48:01;8.20;;;4.88;;
49514;SDS011;35415;47.870;16.058;2022-11-18T01:50:34;7.00;;;5.43;;
49514;SDS011;35415;47.870;16.058;2022-11-18T01:53:08;7.78;;;4.65;;
49514;SDS011;35415;47.870;16.058;2022-11-18T01:55:40;7.00;;;4.13;;
49514;SDS011;35415;47.870;16.058;2022-11-18T01:58:14;7.07;;;4.45;;
49514;SDS011;35415;47.870;16.058;2022-11-18T02:00:47;7.40;;;4.40;;
49514;SDS011;35415;47.870;16.058;2022-11-18T02:03:15;8.55;;;3.95;;
49514;SDS011;35415;47.870;16.058;2022-11-18T02:05:44;6.15;;;4.10;;
49514;SDS011;35415;47.870;16.058;2022-11-18T02:08:13;7.47;;;4.13;;
49514;SDS011;35415;47.870;16.058;2022-11-18T02:10:41;6.45;;;4.28;;
49514;SDS011;35415;47.870;16.058;2022-11-18T02:13:08;7.95;;;4.75;;
49514;SDS011;35415;47.870;16.058;2022-11-18T02:15:39;7.75;;;5.07;;
49514;SDS011;35415;47.870;16.058;2022-11-18T02:18:14;10.40;;;5.93;;
49514;SDS011;35415;47.870;16.058;2022-11-18T02:20:50;8.80;;;6.13;;
49514;SDS011;35415;47.870;16.058;2022-11-18T02:26:53;8.45;;;5.20;;
49514;SDS011;35415;47.870;16.058;2022-11-18T02:29:49;8.25;;;5.32;;
49514;SDS011;35415;47.870;16.058;2022-11-18T02:32:22;10.25;;;6.40;;
49514;SDS011;35415;47.870;16.058;2022-11-18T02:34:52;12.40;;;7.45;;
49514;SDS011;35415;47.870;16.058;2022-11-18T02:37:29;8.25;;;5.30;;
49514;SDS011;35415;47.870;16.058;2022-11-18T02:40:02;10.85;;;5.20;;
49514;SDS011;35415;47.870;16.058;2022-11-18T02:42:34;7.57;;;4.93;;
49514;SDS011;35415;47.870;16.058;2022-11-18T02:45:05;6.63;;;4.78;;
49514;SDS011;35415;47.870;16.058;2022-11-18T02:47:36;7.90;;;5.05;;
49514;SDS011;35415;47.870;16.058;2022-11-18T02:50:06;7.03;;;5.00;;
49514;SDS011;35415;47.870;16.058;2022-11-18T02:52:37;6.63;;;4.67;;
49514;SDS011;35415;47.870;16.058;2022-11-18T02:55:06;8.82;;;4.97;;
49514;SDS011;35415;47.870;16.058;2022-11-18T02:57:37;8.23;;;5.18;;
49514;SDS011;35415;47.870;16.058;2022-11-18T03:00:09;7.90;;;4.80;;
49514;SDS011;35415;47.870;16.058;2022-11-18T03:02:39;7.95;;;4.78;;
49514;SDS011;35415;47.870;16.058;2022-11-18T03:05:07;10.27;;;5.88;;
49514;SDS011;35415;47.870;16.058;2022-11-18T03:07:42;10.90;;;6.50;;
49514;SDS011;35415;47.870;16.058;2022-11-18T03:10:13;10.65;;;5.85;;
49514;SDS011;35415;47.870;16.058;2022-11-18T03:12:42;7.60;;;5.22;;
49514;SDS011;35415;47.870;16.058;2022-11-18T03:15:17;10.75;;;5.35;;
49514;SDS011;35415;47.870;16.058;2022-11-18T03:17:54;10.25;;;6.43;;
49514;SDS011;35415;47.870;16.058;2022-11-18T03:20:32;8.30;;;5.55;;
49514;SDS011;35415;47.870;16.058;2022-11-18T03:23:03;9.07;;;6.07;;
49514;SDS011;35415;47.870;16.058;2022-11-18T03:25:35;11.70;;;5.53;;
49514;SDS011;35415;47.870;16.058;2022-11-18T03:28:08;10.25;;;5.82;;
49514;SDS011;35415;47.870;16.058;2022-11-18T03:30:42;10.15;;;6.07;;
49514;SDS011;35415;47.870;16.058;2022-11-18T03:33:17;9.13;;;6.05;;
49514;SDS011;35415;47.870;16.058;2022-11-18T03:35:48;8.90;;;5.43;;
49514;SDS011;35415;47.870;16.058;2022-11-18T03:38:19;12.27;;;5.22;;
49514;SDS011;35415;47.870;16.058;2022-11-18T03:40:52;8.73;;;5.55;;
49514;SDS011;35415;47.870;16.058;2022-11-18T03:43:21;10.55;;;6.20;;
49514;SDS011;35415;47.870;16.058;2022-11-18T03:45:53;8.77;;;5.32;;
49514;SDS011;35415;47.870;16.058;2022-11-18T03:48:27;9.48;;;5.30;;
49514;SDS011;35415;47.870;16.058;2022-11-18T03:50:58;10.52;;;5.75;;
49514;SDS011;35415;47.870;16.058;2022-11-18T03:53:29;10.30;;;5.45;;
49514;SDS011;35415;47.870;16.058;2022-11-18T03:56:01;9.85;;;6.13;;
49514;SDS011;35415;47.870;16.058;2022-11-18T03:58:35;11.40;;;7.28;;
49514;SDS011;35415;47.870;16.058;2022-11-18T04:01:10;12.05;;;6.93;;
49514;SDS011;35415;47.870;16.058;2022-11-18T04:03:42;14.10;;;7.55;;
49514;SDS011;35415;47.870;16.058;2022-11-18T04:06:12;11.65;;;7.35;;
49514;SDS011;35415;47.870;16.058;2022-11-18T04:08:48;12.55;;;6.90;;
49514;SDS011;35415;47.870;16.058;2022-11-18T04:11:22;11.20;;;6.53;;
49514;SDS011;35415;47.870;16.058;2022-11-18T04:14:12;12.82;;;7.05;;
49514;SDS011;35415;47.870;16.058;2022-11-18T04:16:43;11.80;;;6.82;;
49514;SDS011;35415;47.870;16.058;2022-11-18T04:19:10;14.90;;;7.15;;
49514;SDS011;35415;47.870;16.058;2022-11-18T04:21:37;12.32;;;7.22;;
49514;SDS011;35415;47.870;16.058;2022-11-18T04:24:05;13.73;;;7.70;;
49514;SDS011;35415;47.870;16.058;2022-11-18T04:26:32;10.32;;;6.28;;
49514;SDS011;35415;47.870;16.058;2022-11-18T04:28:59;13.25;;;7.35;;
49514;SDS011;35415;47.870;16.058;2022-11-18T04:31:26;12.38;;;6.90;;
49514;SDS011;35415;47.870;16.058;2022-11-18T04:33:54;12.07;;;7.30;;
49514;SDS011;35415;47.870;16.058;2022-11-18T04:36:21;12.35;;;6.93;;
49514;SDS011;35415;47.870;16.058;2022-11-18T04:38:48;14.20;;;7.65;;
49514;SDS011;35415;47.870;16.058;2022-11-18T04:41:15;11.90;;;7.60;;
49514;SDS011;35415;47.870;16.058;2022-11-18T04:43:43;11.55;;;6.78;;
49514;SDS011;35415;47.870;16.058;2022-11-18T04:46:10;9.48;;;5.93;;
49514;SDS011;35415;47.870;16.058;2022-11-18T04:48:36;8.82;;;6.30;;
49514;SDS011;35415;47.870;16.058;2022-11-18T04:51:05;20.05;;;10.20;;
49514;SDS011;35415;47.870;16.058;2022-11-18T04:53:32;18.90;;;10.35;;
49514;SDS011;35415;47.870;16.058;2022-11-18T04:56:03;13.52;;;8.48;;
49514;SDS011;35415;47.870;16.058;2022-11-18T04:58:31;11.05;;;6.32;;
49514;SDS011;35415;47.870;16.058;2022-11-18T05:00:58;9.88;;;6.38;;
49514;SDS011;35415;47.870;16.058;2022-11-18T05:03:25;9.73;;;6.32;;
49514;SDS011;35415;47.870;16.058;2022-11-18T05:05:52;9.07;;;5.70;;
49514;SDS011;35415;47.870;16.058;2022-11-18T05:08:21;7.85;;;5.55;;
49514;SDS011;35415;47.870;16.058;2022-11-18T05:10:47;10.13;;;6.18;;
49514;SDS011;35415;47.870;16.058;2022-11-18T05:13:14;9.75;;;6.05;;
49514;SDS011;35415;47.870;16.058;2022-11-18T05:15:40;10.07;;;6.50;;
49514;SDS011;35415;47.870;16.058;2022-11-18T05:18:09;10.75;;;7.43;;
49514;SDS011;35415;47.870;16.058;2022-11-18T05:20:36;12.68;;;7.00;;
49514;SDS011;35415;47.870;16.058;2022-11-18T05:23:04;10.25;;;7.35;;
49514;SDS011;35415;47.870;16.058;2022-11-18T05:25:33;12.07;;;7.30;;
49514;SDS011;35415;47.870;16.058;2022-11-18T05:28:04;10.77;;;6.65;;
49514;SDS011;35415;47.870;16.058;2022-11-18T05:30:31;14.45;;;9.27;;
49514;SDS011;35415;47.870;16.058;2022-11-18T05:32:58;14.25;;;8.88;;
49514;SDS011;35415;47.870;16.058;2022-11-18T05:35:25;14.32;;;8.40;;
49514;SDS011;35415;47.870;16.058;2022-11-18T05:37:52;12.85;;;7.55;;
49514;SDS011;35415;47.870;16.058;2022-11-18T05:40:19;11.43;;;7.05;;
49514;SDS011;35415;47.870;16.058;2022-11-18T05:42:48;11.30;;;7.15;;
49514;SDS011;35415;47.870;16.058;2022-11-18T05:45:33;13.18;;;7.28;;
49514;SDS011;35415;47.870;16.058;2022-11-18T05:48:00;9.85;;;5.97;;
49514;SDS011;35415;47.870;16.058;2022-11-18T05:50:28;11.05;;;6.80;;
49514;SDS011;35415;47.870;16.058;2022-11-18T05:52:58;11.65;;;6.50;;
49514;SDS011;35415;47.870;16.058;2022-11-18T05:55:26;9.88;;;6.28;;
49514;SDS011;35415;47.870;16.058;2022-11-18T05:58:01;11.00;;;6.68;;
49514;SDS011;35415;47.870;16.058;2022-11-18T06:00:28;10.25;;;6.45;;
49514;SDS011;35415;47.870;16.058;2022-11-18T06:02:56;9.15;;;5.97;;
49514;SDS011;35415;47.870;16.058;2022-11-18T06:05:24;14.50;;;7.82;;
49514;SDS011;35415;47.870;16.058;2022-11-18T06:07:55;13.15;;;7.35;;
49514;SDS011;35415;47.870;16.058;2022-11-18T06:10:25;13.90;;;7.75;;
49514;SDS011;35415;47.870;16.058;2022-11-18T06:12:59;8.45;;;5.65;;
49514;SDS011;35415;47.870;16.058;2022-11-18T06:15:30;9.55;;;6.50;;
49514;SDS011;35415;47.870;16.058;2022-11-18T06:18:01;11.77;;;6.07;;
49514;SDS011;35415;47.870;16.058;2022-11-18T06:20:31;12.23;;;6.85;;
49514;SDS011;35415;47.870;16.058;2022-11-18T06:23:02;13.57;;;7.68;;
49514;SDS011;35415;47.870;16.058;2022-11-18T06:25:29;292.55;;;41.22;;
49514;SDS011;35415;47.870;16.058;2022-11-18T06:27:59;64.00;;;15.10;;
49514;SDS011;35415;47.870;16.058;2022-11-18T06:30:28;13.75;;;6.03;;
49514;SDS011;35415;47.870;16.058;2022-11-18T06:32:55;9.40;;;4.55;;
49514;SDS011;35415;47.870;16.058;2022-11-18T06:35:22;8.73;;;5.20;;
49514;SDS011;35415;47.870;16.058;2022-11-18T06:37:49;7.85;;;4.53;;
49514;SDS011;35415;47.870;16.058;2022-11-18T06:40:16;6.78;;;3.97;;
49514;SDS011;35415;47.870;16.058;2022-11-18T06:42:43;7.38;;;4.28;;
49514;SDS011;35415;47.870;16.058;2022-11-18T06:45:34;6.97;;;4.60;;
49514;SDS011;35415;47.870;16.058;2022-11-18T06:48:02;8.35;;;5.22;;
49514;SDS011;35415;47.870;16.058;2022-11-18T06:50:28;9.38;;;5.28;;
49514;SDS011;35415;47.870;16.058;2022-11-18T06:52:58;7.55;;;5.07;;
49514;SDS011;35415;47.870;16.058;2022-11-18T06:55:26;8.88;;;5.13;;
49514;SDS011;35415;47.870;16.058;2022-11-18T06:57:56;10.20;;;5.22;;
49514;SDS011;35415;47.870;16.058;2022-11-18T07:00:24;7.50;;;4.68;;
49514;SDS011;35415;47.870;16.058;2022-11-18T07:02:52;7.88;;;4.78;;
49514;SDS011;35415;47.870;16.058;2022-11-18T07:05:19;8.43;;;5.13;;
49514;SDS011;35415;47.870;16.058;2022-11-18T07:07:47;8.88;;;5.50;;
49514;SDS011;35415;47.870;16.058;2022-11-18T07:10:14;9.00;;;5.22;;
49514;SDS011;35415;47.870;16.058;2022-11-18T07:12:44;8.55;;;5.43;;
49514;SDS011;35415;47.870;16.058;2022-11-18T07:15:11;8.65;;;5.20;;
49514;SDS011;35415;47.870;16.058;2022-11-18T07:17:39;9.90;;;5.72;;
49514;SDS011;35415;47.870;16.058;2022-11-18T07:20:09;8.48;;;5.15;;
49514;SDS011;35415;47.870;16.058;2022-11-18T07:22:36;8.70;;;5.50;;
49514;SDS011;35415;47.870;16.058;2022-11-18T07:25:04;9.50;;;5.93;;
49514;SDS011;35415;47.870;16.058;2022-11-18T07:27:31;7.50;;;5.35;;
49514;SDS011;35415;47.870;16.058;2022-11-18T07:29:59;8.85;;;4.97;;
49514;SDS011;35415;47.870;16.058;2022-11-18T07:32:26;10.10;;;5.82;;
49514;SDS011;35415;47.870;16.058;2022-11-18T07:34:53;8.93;;;4.97;;
49514;SDS011;35415;47.870;16.058;2022-11-18T07:37:22;10.15;;;6.32;;
49514;SDS011;35415;47.870;16.058;2022-11-18T07:39:52;8.93;;;4.85;;
49514;SDS011;35415;47.870;16.058;2022-11-18T07:42:19;10.75;;;5.57;;
49514;SDS011;35415;47.870;16.058;2022-11-18T07:44:46;10.10;;;5.70;;
49514;SDS011;35415;47.870;16.058;2022-11-18T07:47:13;10.15;;;5.88;;
49514;SDS011;35415;47.870;16.058;2022-11-18T07:49:41;10.70;;;6.30;;
49514;SDS011;35415;47.870;16.058;2022-11-18T07:52:08;14.88;;;7.00;;
49514;SDS011;35415;47.870;16.058;2022-11-18T07:54:37;11.13;;;8.07;;
49514;SDS011;35415;47.870;16.058;2022-11-18T07:57:04;11.50;;;7.70;;
49514;SDS011;35415;47.870;16.058;2022-11-18T07:59:32;9.10;;;5.78;;
49514;SDS011;35415;47.870;16.058;2022-11-18T08:01:59;6.28;;;4.30;;
49514;SDS011;35415;47.870;16.058;2022-11-18T08:04:26;5.97;;;3.72;;
49514;SDS011;35415;47.870;16.058;2022-11-18T08:06:54;6.32;;;3.63;;
49514;SDS011;35415;47.870;16.058;2022-11-18T08:09:21;7.20;;;3.63;;
49514;SDS011;35415;47.870;16.058;2022-11-18T08:11:50;5.88;;;4.18;;
49514;SDS011;35415;47.870;16.058;2022-11-18T08:14:17;5.75;;;3.85;;
49514;SDS011;35415;47.870;16.058;2022-11-18T08:16:48;6.60;;;4.13;;
49514;SDS011;35415;47.870;16.058;2022-11-18T08:19:16;7.00;;;4.18;;
49514;SDS011;35415;47.870;16.058;2022-11-18T08:21:43;6.00;;;4.90;;
49514;SDS011;35415;47.870;16.058;2022-11-18T08:24:10;9.02;;;4.80;;
49514;SDS011;35415;47.870;16.058;2022-11-18T08:26:37;6.05;;;4.00;;
49514;SDS011;35415;47.870;16.058;2022-11-18T08:29:07;6.45;;;4.30;;
49514;SDS011;35415;47.870;16.058;2022-11-18T08:31:34;7.00;;;4.60;;
49514;SDS011;35415;47.870;16.058;2022-11-18T08:34:02;8.85;;;4.72;;
49514;SDS011;35415;47.870;16.058;2022-11-18T08:36:31;7.00;;;4.35;;
49514;SDS011;35415;47.870;16.058;2022-11-18T08:39:01;6.07;;;4.28;;
49514;SDS011;35415;47.870;16.058;2022-11-18T08:41:31;6.53;;;4.30;;
49514;SDS011;35415;47.870;16.058;2022-11-18T08:44:00;5.72;;;3.47;;
49514;SDS011;35415;47.870;16.058;2022-11-18T08:46:29;8.10;;;3.80;;
49514;SDS011;35415;47.870;16.058;2022-11-18T08:48:56;5.32;;;3.65;;
49514;SDS011;35415;47.870;16.058;2022-11-18T08:51:24;4.80;;;3.42;;
49514;SDS011;35415;47.870;16.058;2022-11-18T08:53:52;5.60;;;3.65;;
49514;SDS011;35415;47.870;16.058;2022-11-18T08:56:20;4.85;;;3.30;;
49514;SDS011;35415;47.870;16.058;2022-11-18T08:58:49;6.53;;;4.10;;
49514;SDS011;35415;47.870;16.058;2022-11-18T09:01:17;5.57;;;3.47;;
49514;SDS011;35415;47.870;16.058;2022-11-18T09:03:45;5.93;;;3.50;;
49514;SDS011;35415;47.870;16.058;2022-11-18T09:06:13;4.70;;;3.20;;
49514;SDS011;35415;47.870;16.058;2022-11-18T09:08:43;4.32;;;3.13;;
49514;SDS011;35415;47.870;16.058;2022-11-18T09:11:11;6.78;;;3.72;;
49514;SDS011;35415;47.870;16.058;2022-11-18T09:13:40;5.03;;;3.10;;
49514;SDS011;35415;47.870;16.058;2022-11-18T09:16:07;5.75;;;3.20;;
49514;SDS011;35415;47.870;16.058;2022-11-18T09:18:35;4.90;;;2.95;;
49514;SDS011;35415;47.870;16.058;2022-11-18T09:21:05;4.20;;;2.67;;
49514;SDS011;35415;47.870;16.058;2022-11-18T09:23:34;5.07;;;3.58;;
49514;SDS011;35415;47.870;16.058;2022-11-18T09:26:03;5.30;;;3.42;;
49514;SDS011;35415;47.870;16.058;2022-11-18T09:28:33;4.05;;;2.47;;
49514;SDS011;35415;47.870;16.058;2022-11-18T09:31:02;4.55;;;2.97;;
49514;SDS011;35415;47.870;16.058;2022-11-18T09:33:30;4.80;;;2.88;;
49514;SDS011;35415;47.870;16.058;2022-11-18T09:35:57;4.72;;;3.28;;
49514;SDS011;35415;47.870;16.058;2022-11-18T09:38:27;4.50;;;3.20;;
49514;SDS011;35415;47.870;16.058;2022-11-18T09:40:57;4.97;;;3.30;;
49514;SDS011;35415;47.870;16.058;2022-11-18T09:43:35;5.88;;;4.65;;
49514;SDS011;35415;47.870;16.058;2022-11-18T09:46:15;4.75;;;2.85;;
49514;SDS011;35415;47.870;16.058;2022-11-18T09:48:54;6.15;;;3.30;;
49514;SDS011;35415;47.870;16.058;2022-11-18T09:51:40;6.35;;;3.08;;
49514;SDS011;35415;47.870;16.058;2022-11-18T09:54:12;3.53;;;2.80;;
49514;SDS011;35415;47.870;16.058;2022-11-18T09:56:46;3.50;;;2.55;;
49514;SDS011;35415;47.870;16.058;2022-11-18T09:59:14;3.85;;;2.22;;
49514;SDS011;35415;47.870;16.058;2022-11-18T10:01:44;3.25;;;2.75;;
49514;SDS011;35415;47.870;16.058;2022-11-18T10:04:13;4.35;;;2.47;;
49514;SDS011;35415;47.870;16.058;2022-11-18T10:06:42;3.40;;;2.42;;
49514;SDS011;35415;47.870;16.058;2022-11-18T10:09:16;5.70;;;2.58;;
49514;SDS011;35415;47.870;16.058;2022-11-18T10:14:48;3.22;;;2.42;;
49514;SDS011;35415;47.870;16.058;2022-11-18T10:17:30;5.07;;;3.22;;
49514;SDS011;35415;47.870;16.058;2022-11-18T10:20:29;4.13;;;2.83;;
49514;SDS011;35415;47.870;16.058;2022-11-18T10:23:08;3.97;;;2.35;;
49514;SDS011;35415;47.870;16.058;2022-11-18T10:25:51;3.80;;;2.53;;
49514;SDS011;35415;47.870;16.058;2022-11-18T10:28:20;3.13;;;1.90;;
49514;SDS011;35415;47.870;16.058;2022-11-18T10:30:49;1.25;;;1.00;;
49514;SDS011;35415;47.870;16.058;2022-11-18T10:33:24;0.88;;;0.82;;
49514;SDS011;35415;47.870;16.058;2022-11-18T10:39:06;0.30;;;0.30;;
49514;SDS011;35415;47.870;16.058;2022-11-18T10:41:41;1.20;;;0.70;;
49514;SDS011;35415;47.870;16.058;2022-11-18T10:44:31;1.02;;;0.73;;
49514;SDS011;35415;47.870;16.058;2022-11-18T10:47:23;0.45;;;0.40;;
49514;SDS011;35415;47.870;16.058;2022-11-18T10:49:58;0.60;;;0.45;;
49514;SDS011;35415;47.870;16.058;2022-11-18T10:52:27;0.83;;;0.60;;
49514;SDS011;35415;47.870;16.058;2022-11-18T10:55:06;0.75;;;0.57;;
49514;SDS011;35415;47.870;16.058;2022-11-18T10:57:39;0.77;;;0.47;;
49514;SDS011;35415;47.870;16.058;2022-11-18T11:03:00;2.15;;;0.45;;
49514;SDS011;35415;47.870;16.058;2022-11-18T11:06:12;1.10;;;0.47;;
49514;SDS011;35415;47.870;16.058;2022-11-18T11:08:45;0.55;;;0.40;;
49514;SDS011;35415;47.870;16.058;2022-11-18T11:11:19;0.30;;;0.30;;
49514;SDS011;35415;47.870;16.058;2022-11-18T11:14:03;0.52;;;0.50;;
49514;SDS011;35415;47.870;16.058;2022-11-18T11:16:45;0.60;;;0.57;;
49514;SDS011;35415;47.870;16.058;2022-11-18T11:19:20;0.80;;;0.50;;
49514;SDS011;35415;47.870;16.058;2022-11-18T11:21:57;1.63;;;0.80;;
49514;SDS011;35415;47.870;16.058;2022-11-18T11:24:25;0.73;;;0.73;;
49514;SDS011;35415;47.870;16.058;2022-11-18T11:27:00;0.70;;;0.30;;
49514;SDS011;35415;47.870;16.058;2022-11-18T11:29:52;0.60;;;0.60;;
49514;SDS011;35415;47.870;16.058;2022-11-18T11:32:33;2.05;;;1.77;;
49514;SDS011;35415;47.870;16.058;2022-11-18T11:35:16;0.40;;;0.40;;
49514;SDS011;35415;47.870;16.058;2022-11-18T11:37:50;0.15;;;0.15;;
49514;SDS011;35415;47.870;16.058;2022-11-18T11:40:25;1.27;;;1.17;;
49514;SDS011;35415;47.870;16.058;2022-11-18T11:43:01;0.20;;;0.20;;
49514;SDS011;35415;47.870;16.058;2022-11-18T11:46:10;0.25;;;0.25;;
49514;SDS011;35415;47.870;16.058;2022-11-18T11:48:50;2.05;;;0.60;;
49514;SDS011;35415;47.870;16.058;2022-11-18T11:51:25;1.08;;;0.55;;
49514;SDS011;35415;47.870;16.058;2022-11-18T11:56:48;0.30;;;0.30;;
49514;SDS011;35415;47.870;16.058;2022-11-18T11:59:26;0.57;;;0.43;;
49514;SDS011;35415;47.870;16.058;2022-11-18T12:04:57;0.68;;;0.30;;
49514;SDS011;35415;47.870;16.058;2022-11-18T12:07:29;0.75;;;0.50;;
49514;SDS011;35415;47.870;16.058;2022-11-18T12:10:08;0.50;;;0.50;;
49514;SDS011;35415;47.870;16.058;2022-11-18T12:12:51;0.82;;;0.68;;
49514;SDS011;35415;47.870;16.058;2022-11-18T12:15:39;0.55;;;0.50;;
49514;SDS011;35415;47.870;16.058;2022-11-18T12:18:14;0.80;;;0.70;;
49514;SDS011;35415;47.870;16.058;2022-11-18T12:20:48;4.60;;;3.08;;
49514;SDS011;35415;47.870;16.058;2022-11-18T12:23:20;0.60;;;0.47;;
49514;SDS011;35415;47.870;16.058;2022-11-18T12:25:52;1.40;;;1.02;;
49514;SDS011;35415;47.870;16.058;2022-11-18T12:28:25;0.40;;;0.40;;
49514;SDS011;35415;47.870;16.058;2022-11-18T12:33:57;3.63;;;1.50;;
49514;SDS011;35415;47.870;16.058;2022-11-18T12:36:28;2.88;;;1.90;;
49514;SDS011;35415;47.870;16.058;2022-11-18T12:38:57;2.08;;;1.70;;
49514;SDS011;35415;47.870;16.058;2022-11-18T12:41:51;1.10;;;1.00;;
49514;SDS011;35415;47.870;16.058;2022-11-18T12:44:36;1.80;;;0.90;;
49514;SDS011;35415;47.870;16.058;2022-11-18T12:47:05;0.40;;;0.40;;
49514;SDS011;35415;47.870;16.058;2022-11-18T12:52:48;0.77;;;0.70;;
49514;SDS011;35415;47.870;16.058;2022-11-18T12:55:30;1.45;;;0.90;;
49514;SDS011;35415;47.870;16.058;2022-11-18T12:57:59;2.15;;;1.27;;
49514;SDS011;35415;47.870;16.058;2022-11-18T13:00:32;2.13;;;1.17;;
49514;SDS011;35415;47.870;16.058;2022-11-18T13:03:14;0.50;;;0.50;;
49514;SDS011;35415;47.870;16.058;2022-11-18T13:05:48;4.70;;;1.98;;
49514;SDS011;35415;47.870;16.058;2022-11-18T13:08:28;6.22;;;3.42;;
49514;SDS011;35415;47.870;16.058;2022-11-18T13:10:58;2.35;;;1.00;;
49514;SDS011;35415;47.870;16.058;2022-11-18T13:13:51;0.82;;;0.50;;
49514;SDS011;35415;47.870;16.058;2022-11-18T13:16:52;3.90;;;0.70;;
49514;SDS011;35415;47.870;16.058;2022-11-18T13:19:37;0.30;;;0.20;;
49514;SDS011;35415;47.870;16.058;2022-11-18T13:22:14;0.52;;;0.50;;
49514;SDS011;35415;47.870;16.058;2022-11-18T13:25:23;0.80;;;0.47;;
49514;SDS011;35415;47.870;16.058;2022-11-18T13:27:55;0.80;;;0.80;;
49514;SDS011;35415;47.870;16.058;2022-11-18T13:30:42;0.50;;;0.50;;
49514;SDS011;35415;47.870;16.058;2022-11-18T13:33:16;1.00;;;0.70;;
49514;SDS011;35415;47.870;16.058;2022-11-18T13:35:43;0.55;;;0.40;;
49514;SDS011;35415;47.870;16.058;2022-11-18T13:38:17;2.67;;;1.48;;
49514;SDS011;35415;47.870;16.058;2022-11-18T13:40:50;1.30;;;0.90;;
49514;SDS011;35415;47.870;16.058;2022-11-18T13:43:38;1.77;;;0.60;;
49514;SDS011;35415;47.870;16.058;2022-11-18T13:46:13;7.20;;;2.63;;
49514;SDS011;35415;47.870;16.058;2022-11-18T13:48:48;0.95;;;0.50;;
49514;SDS011;35415;47.870;16.058;2022-11-18T13:51:20;1.20;;;0.63;;
49514;SDS011;35415;47.870;16.058;2022-11-18T13:53:49;3.80;;;1.00;;
49514;SDS011;35415;47.870;16.058;2022-11-18T13:56:29;1.83;;;0.57;;
49514;SDS011;35415;47.870;16.058;2022-11-18T13:59:00;4.65;;;1.10;;
49514;SDS011;35415;47.870;16.058;2022-11-18T14:01:30;4.63;;;1.38;;
49514;SDS011;35415;47.870;16.058;2022-11-18T14:04:06;1.27;;;0.40;;
49514;SDS011;35415;47.870;16.058;2022-11-18T14:06:42;8.48;;;2.38;;
49514;SDS011;35415;47.870;16.058;2022-11-18T14:09:21;1.02;;;0.80;;
49514;SDS011;35415;47.870;16.058;2022-11-18T14:11:59;2.13;;;0.60;;
49514;SDS011;35415;47.870;16.058;2022-11-18T14:14:33;0.82;;;0.50;;
49514;SDS011;35415;47.870;16.058;2022-11-18T14:17:14;1.25;;;0.75;;
49514;SDS011;35415;47.870;16.058;2022-11-18T14:19:43;1.70;;;1.38;;
49514;SDS011;35415;47.870;16.058;2022-11-18T14:22:15;1.73;;;1.30;;
49514;SDS011;35415;47.870;16.058;2022-11-18T14:24:52;5.40;;;2.80;;
49514;SDS011;35415;47.870;16.058;2022-11-18T14:27:34;9.30;;;5.15;;
49514;SDS011;35415;47.870;16.058;2022-11-18T14:33:18;3.05;;;1.85;;
49514;SDS011;35415;47.870;16.058;2022-11-18T14:35:49;2.53;;;1.30;;
49514;SDS011;35415;47.870;16.058;2022-11-18T14:38:20;5.35;;;2.50;;
49514;SDS011;35415;47.870;16.058;2022-11-18T14:40:54;6.55;;;4.68;;
49514;SDS011;35415;47.870;16.058;2022-11-18T14:43:27;4.32;;;2.15;;
49514;SDS011;35415;47.870;16.058;2022-11-18T14:46:00;5.85;;;2.53;;
49514;SDS011;35415;47.870;16.058;2022-11-18T14:48:36;9.82;;;2.97;;
49514;SDS011;35415;47.870;16.058;2022-11-18T14:51:15;6.03;;;2.40;;
49514;SDS011;35415;47.870;16.058;2022-11-18T14:53:43;3.05;;;1.48;;
49514;SDS011;35415;47.870;16.058;2022-11-18T14:56:12;0.95;;;0.65;;
49514;SDS011;35415;47.870;16.058;2022-11-18T14:58:45;10.05;;;3.60;;
49514;SDS011;35415;47.870;16.058;2022-11-18T15:01:12;4.35;;;1.85;;
49514;SDS011;35415;47.870;16.058;2022-11-18T15:03:43;4.20;;;2.00;;
49514;SDS011;35415;47.870;16.058;2022-11-18T15:06:11;2.30;;;1.05;;
49514;SDS011;35415;47.870;16.058;2022-11-18T15:08:39;0.43;;;0.43;;
49514;SDS011;35415;47.870;16.058;2022-11-18T15:11:07;5.68;;;2.22;;
49514;SDS011;35415;47.870;16.058;2022-11-18T15:13:34;1.85;;;1.58;;
49514;SDS011;35415;47.870;16.058;2022-11-18T15:16:05;2.38;;;1.50;;
49514;SDS011;35415;47.870;16.058;2022-11-18T15:18:40;0.65;;;0.52;;
49514;SDS011;35415;47.870;16.058;2022-11-18T15:21:08;2.75;;;1.05;;
49514;SDS011;35415;47.870;16.058;2022-11-18T15:23:36;2.33;;;1.58;;
49514;SDS011;35415;47.870;16.058;2022-11-18T15:26:10;1.88;;;0.80;;